sensor_id;sensor_type;location;lat;lon;timestamp;P1;durP1;ratioP1;P2;durP2;ratioP2
2129;SDS011;1071;52.544;13.374;2022-12-18T00:00:05;28.35;;;14.27;;
2129;SDS011;1071;52.544;13.374;2022-12-18T00:02:33;27.90;;;15.85;;
2129;SDS011;1071;52.544;13.374;2022-12-18T00:05:00;32.35;;;14.95;;
2129;SDS011;1071;52.544;13.374;2022-12-18T00:07:27;31.02;;;15.60;;
2129;SDS011;1071;52.544;13.374;2022-12-18T00:09:54;25.25;;;16.08;;
2129;SDS011;1071;52.544;13.374;2022-12-18T00:12:21;31.95;;;15.50;;
2129;SDS011;1071;52.544;13.374;2022-12-18T00:14:48;32.10;;;14.30;;
2129;SDS011;1071;52.544;13.374;2022-12-18T00:17:16;30.40;;;17.10;;
2129;SDS011;1071;52.544;13.374;2022-12-18T00:19:43;33.22;;;17.80;;
2129;SDS011;1071;52.544;13.374;2022-12-18T00:22:10;32.65;;;18.25;;
2129;SDS011;1071;52.544;13.374;2022-12-18T00:24:37;33.25;;;16.00;;
2129;SDS011;1071;52.544;13.374;2022-12-18T00:27:07;28.85;;;15.73;;
2129;SDS011;1071;52.544;13.374;2022-12-18T00:29:39;30.20;;;15.65;;
2129;SDS011;1071;52.544;13.374;2022-12-18T00:32:06;34.65;;;18.38;;
2129;SDS011;1071;52.544;13.374;2022-12-18T00:34:35;24.92;;;15.32;;
2129;SDS011;1071;52.544;13.374;2022-12-18T00:37:02;29.60;;;15.55;;
2129;SDS011;1071;52.544;13.374;2022-12-18T00:39:31;32.13;;;16.05;;
2129;SDS011;1071;52.544;13.374;2022-12-18T00:41:58;33.13;;;17.00;;
2129;SDS011;1071;52.544;13.374;2022-12-18T00:44:43;30.02;;;16.58;;
2129;SDS011;1071;52.544;13.374;2022-12-18T00:47:09;29.98;;;15.55;;
2129;SDS011;1071;52.544;13.374;2022-12-18T00:49:38;30.42;;;19.35;;
2129;SDS011;1071;52.544;13.374;2022-12-18T00:52:05;29.75;;;16.42;;
2129;SDS011;1071;52.544;13.374;2022-12-18T00:54:32;31.25;;;18.40;;
2129;SDS011;1071;52.544;13.374;2022-12-18T00:56:59;39.85;;;20.70;;
2129;SDS011;1071;52.544;13.374;2022-12-18T00:59:27;37.58;;;19.05;;
2129;SDS011;1071;52.544;13.374;2022-12-18T01:01:55;27.40;;;16.30;;
2129;SDS011;1071;52.544;13.374;2022-12-18T01:04:22;36.63;;;19.73;;
2129;SDS011;1071;52.544;13.374;2022-12-18T01:06:50;33.13;;;19.40;;
2129;SDS011;1071;52.544;13.374;2022-12-18T01:09:17;32.28;;;17.85;;
2129;SDS011;1071;52.544;13.374;2022-12-18T01:11:49;33.47;;;17.58;;
2129;SDS011;1071;52.544;13.374;2022-12-18T01:14:16;39.38;;;17.42;;
2129;SDS011;1071;52.544;13.374;2022-12-18T01:16:43;30.50;;;17.17;;
2129;SDS011;1071;52.544;13.374;2022-12-18T01:19:10;31.30;;;16.98;;
2129;SDS011;1071;52.544;13.374;2022-12-18T01:21:37;31.23;;;15.90;;
2129;SDS011;1071;52.544;13.374;2022-12-18T01:24:06;26.02;;;16.88;;
2129;SDS011;1071;52.544;13.374;2022-12-18T01:26:33;31.45;;;17.38;;
2129;SDS011;1071;52.544;13.374;2022-12-18T01:29:00;30.80;;;16.73;;
2129;SDS011;1071;52.544;13.374;2022-12-18T01:31:29;38.53;;;19.08;;
2129;SDS011;1071;52.544;13.374;2022-12-18T01:34:00;30.05;;;16.55;;
2129;SDS011;1071;52.544;13.374;2022-12-18T01:36:30;30.10;;;17.77;;
2129;SDS011;1071;52.544;13.374;2022-12-18T01:38:58;28.33;;;16.52;;
2129;SDS011;1071;52.544;13.374;2022-12-18T01:41:28;27.52;;;17.10;;
2129;SDS011;1071;52.544;13.374;2022-12-18T01:47:22;36.60;;;18.13;;
2129;SDS011;1071;52.544;13.374;2022-12-18T01:49:52;31.83;;;16.20;;
2129;SDS011;1071;52.544;13.374;2022-12-18T01:52:21;30.60;;;16.27;;
2129;SDS011;1071;52.544;13.374;2022-12-18T01:54:49;30.75;;;16.50;;
2129;SDS011;1071;52.544;13.374;2022-12-18T01:57:20;22.73;;;14.93;;
2129;SDS011;1071;52.544;13.374;2022-12-18T01:59:47;33.40;;;16.38;;
2129;SDS011;1071;52.544;13.374;2022-12-18T02:02:18;36.15;;;17.30;;
2129;SDS011;1071;52.544;13.374;2022-12-18T02:04:46;33.95;;;17.83;;
2129;SDS011;1071;52.544;13.374;2022-12-18T02:07:14;35.45;;;19.40;;
2129;SDS011;1071;52.544;13.374;2022-12-18T02:09:46;33.10;;;17.33;;
2129;SDS011;1071;52.544;13.374;2022-12-18T02:12:17;30.67;;;15.73;;
2129;SDS011;1071;52.544;13.374;2022-12-18T02:14:49;30.55;;;16.08;;
2129;SDS011;1071;52.544;13.374;2022-12-18T02:17:25;31.70;;;15.68;;
2129;SDS011;1071;52.544;13.374;2022-12-18T02:20:01;34.75;;;18.77;;
2129;SDS011;1071;52.544;13.374;2022-12-18T02:22:38;27.23;;;15.80;;
2129;SDS011;1071;52.544;13.374;2022-12-18T02:25:18;25.77;;;15.43;;
2129;SDS011;1071;52.544;13.374;2022-12-18T02:27:56;26.55;;;16.05;;
2129;SDS011;1071;52.544;13.374;2022-12-18T02:30:26;35.45;;;17.35;;
2129;SDS011;1071;52.544;13.374;2022-12-18T02:32:57;32.97;;;16.48;;
2129;SDS011;1071;52.544;13.374;2022-12-18T02:35:27;39.22;;;19.27;;
2129;SDS011;1071;52.544;13.374;2022-12-18T02:37:56;35.15;;;16.95;;
2129;SDS011;1071;52.544;13.374;2022-12-18T02:40:25;33.65;;;17.95;;
2129;SDS011;1071;52.544;13.374;2022-12-18T02:42:54;34.72;;;17.60;;
2129;SDS011;1071;52.544;13.374;2022-12-18T02:45:23;32.85;;;15.45;;
2129;SDS011;1071;52.544;13.374;2022-12-18T02:47:49;29.10;;;16.10;;
2129;SDS011;1071;52.544;13.374;2022-12-18T02:50:18;32.83;;;18.42;;
2129;SDS011;1071;52.544;13.374;2022-12-18T02:52:55;30.13;;;17.85;;
2129;SDS011;1071;52.544;13.374;2022-12-18T02:55:32;36.25;;;17.77;;
2129;SDS011;1071;52.544;13.374;2022-12-18T02:58:11;43.58;;;21.10;;
2129;SDS011;1071;52.544;13.374;2022-12-18T03:00:47;36.25;;;19.42;;
2129;SDS011;1071;52.544;13.374;2022-12-18T03:03:19;40.65;;;19.65;;
2129;SDS011;1071;52.544;13.374;2022-12-18T03:05:55;33.70;;;17.75;;
2129;SDS011;1071;52.544;13.374;2022-12-18T03:08:26;43.45;;;18.35;;
2129;SDS011;1071;52.544;13.374;2022-12-18T03:10:56;38.60;;;18.38;;
2129;SDS011;1071;52.544;13.374;2022-12-18T03:13:31;35.97;;;19.83;;
2129;SDS011;1071;52.544;13.374;2022-12-18T03:16:04;37.63;;;19.90;;
2129;SDS011;1071;52.544;13.374;2022-12-18T03:18:34;41.47;;;19.80;;
2129;SDS011;1071;52.544;13.374;2022-12-18T03:21:05;48.92;;;22.80;;
2129;SDS011;1071;52.544;13.374;2022-12-18T03:23:34;45.08;;;21.92;;
2129;SDS011;1071;52.544;13.374;2022-12-18T03:26:07;47.33;;;21.92;;
2129;SDS011;1071;52.544;13.374;2022-12-18T03:28:39;44.38;;;22.67;;
2129;SDS011;1071;52.544;13.374;2022-12-18T03:31:11;49.78;;;22.92;;
2129;SDS011;1071;52.544;13.374;2022-12-18T03:33:41;41.55;;;21.02;;
2129;SDS011;1071;52.544;13.374;2022-12-18T03:36:12;42.13;;;23.17;;
2129;SDS011;1071;52.544;13.374;2022-12-18T03:38:40;45.25;;;24.27;;
2129;SDS011;1071;52.544;13.374;2022-12-18T03:41:10;47.13;;;22.23;;
2129;SDS011;1071;52.544;13.374;2022-12-18T03:43:47;49.97;;;23.92;;
2129;SDS011;1071;52.544;13.374;2022-12-18T03:46:24;49.60;;;24.30;;
2129;SDS011;1071;52.544;13.374;2022-12-18T03:48:57;47.92;;;23.73;;
2129;SDS011;1071;52.544;13.374;2022-12-18T03:51:31;52.58;;;25.73;;
2129;SDS011;1071;52.544;13.374;2022-12-18T03:54:03;39.97;;;20.50;;
2129;SDS011;1071;52.544;13.374;2022-12-18T03:56:33;53.10;;;26.98;;
2129;SDS011;1071;52.544;13.374;2022-12-18T03:59:06;52.45;;;26.48;;
2129;SDS011;1071;52.544;13.374;2022-12-18T04:01:38;46.33;;;23.90;;
2129;SDS011;1071;52.544;13.374;2022-12-18T04:04:08;44.13;;;23.27;;
2129;SDS011;1071;52.544;13.374;2022-12-18T04:07:03;50.13;;;22.77;;
2129;SDS011;1071;52.544;13.374;2022-12-18T04:09:31;41.78;;;21.50;;
2129;SDS011;1071;52.544;13.374;2022-12-18T04:12:00;43.80;;;23.83;;
2129;SDS011;1071;52.544;13.374;2022-12-18T04:14:27;46.50;;;23.40;;
2129;SDS011;1071;52.544;13.374;2022-12-18T04:16:56;51.70;;;25.15;;
2129;SDS011;1071;52.544;13.374;2022-12-18T04:19:23;56.08;;;27.30;;
2129;SDS011;1071;52.544;13.374;2022-12-18T04:21:50;50.67;;;25.55;;
2129;SDS011;1071;52.544;13.374;2022-12-18T04:24:17;54.38;;;26.08;;
2129;SDS011;1071;52.544;13.374;2022-12-18T04:26:44;47.55;;;21.90;;
2129;SDS011;1071;52.544;13.374;2022-12-18T04:29:11;55.17;;;25.63;;
2129;SDS011;1071;52.544;13.374;2022-12-18T04:31:38;55.03;;;25.73;;
2129;SDS011;1071;52.544;13.374;2022-12-18T04:34:07;49.72;;;23.58;;
2129;SDS011;1071;52.544;13.374;2022-12-18T04:36:34;37.63;;;23.10;;
2129;SDS011;1071;52.544;13.374;2022-12-18T04:39:01;37.22;;;21.83;;
2129;SDS011;1071;52.544;13.374;2022-12-18T04:41:31;43.75;;;23.33;;
2129;SDS011;1071;52.544;13.374;2022-12-18T04:43:58;42.47;;;19.52;;
2129;SDS011;1071;52.544;13.374;2022-12-18T04:46:25;42.22;;;22.45;;
2129;SDS011;1071;52.544;13.374;2022-12-18T04:48:52;46.72;;;20.88;;
2129;SDS011;1071;52.544;13.374;2022-12-18T04:51:20;38.10;;;19.25;;
2129;SDS011;1071;52.544;13.374;2022-12-18T04:53:47;38.22;;;21.10;;
2129;SDS011;1071;52.544;13.374;2022-12-18T04:56:14;38.97;;;21.20;;
2129;SDS011;1071;52.544;13.374;2022-12-18T04:58:42;33.17;;;18.70;;
2129;SDS011;1071;52.544;13.374;2022-12-18T05:01:10;33.22;;;18.88;;
2129;SDS011;1071;52.544;13.374;2022-12-18T05:03:39;37.65;;;18.17;;
2129;SDS011;1071;52.544;13.374;2022-12-18T05:06:06;38.03;;;19.65;;
2129;SDS011;1071;52.544;13.374;2022-12-18T05:08:35;36.67;;;18.65;;
2129;SDS011;1071;52.544;13.374;2022-12-18T05:11:02;38.10;;;19.23;;
2129;SDS011;1071;52.544;13.374;2022-12-18T05:13:31;35.33;;;18.48;;
2129;SDS011;1071;52.544;13.374;2022-12-18T05:15:59;40.47;;;18.77;;
2129;SDS011;1071;52.544;13.374;2022-12-18T05:18:26;38.90;;;19.30;;
2129;SDS011;1071;52.544;13.374;2022-12-18T05:20:54;45.15;;;19.55;;
2129;SDS011;1071;52.544;13.374;2022-12-18T05:23:23;44.50;;;18.75;;
2129;SDS011;1071;52.544;13.374;2022-12-18T05:25:52;35.92;;;20.05;;
2129;SDS011;1071;52.544;13.374;2022-12-18T05:28:20;39.97;;;19.10;;
2129;SDS011;1071;52.544;13.374;2022-12-18T05:30:48;39.83;;;20.15;;
2129;SDS011;1071;52.544;13.374;2022-12-18T05:33:19;40.53;;;20.20;;
2129;SDS011;1071;52.544;13.374;2022-12-18T05:35:50;39.22;;;19.02;;
2129;SDS011;1071;52.544;13.374;2022-12-18T05:38:21;31.67;;;17.65;;
2129;SDS011;1071;52.544;13.374;2022-12-18T05:40:54;36.45;;;17.58;;
2129;SDS011;1071;52.544;13.374;2022-12-18T05:43:22;38.67;;;19.45;;
2129;SDS011;1071;52.544;13.374;2022-12-18T05:45:50;30.42;;;17.73;;
2129;SDS011;1071;52.544;13.374;2022-12-18T05:48:18;35.78;;;16.95;;
2129;SDS011;1071;52.544;13.374;2022-12-18T05:50:46;29.52;;;18.77;;
2129;SDS011;1071;52.544;13.374;2022-12-18T05:53:14;33.47;;;18.17;;
2129;SDS011;1071;52.544;13.374;2022-12-18T05:55:43;34.00;;;15.88;;
2129;SDS011;1071;52.544;13.374;2022-12-18T05:58:12;34.03;;;16.15;;
2129;SDS011;1071;52.544;13.374;2022-12-18T06:00:43;26.92;;;16.42;;
2129;SDS011;1071;52.544;13.374;2022-12-18T06:03:11;34.35;;;20.42;;
2129;SDS011;1071;52.544;13.374;2022-12-18T06:05:40;36.30;;;19.23;;
2129;SDS011;1071;52.544;13.374;2022-12-18T06:08:08;37.20;;;17.95;;
2129;SDS011;1071;52.544;13.374;2022-12-18T06:10:36;34.42;;;18.27;;
2129;SDS011;1071;52.544;13.374;2022-12-18T06:13:03;37.47;;;19.75;;
2129;SDS011;1071;52.544;13.374;2022-12-18T06:15:32;43.30;;;23.48;;
2129;SDS011;1071;52.544;13.374;2022-12-18T06:18:02;43.70;;;23.02;;
2129;SDS011;1071;52.544;13.374;2022-12-18T06:20:30;39.58;;;21.00;;
2129;SDS011;1071;52.544;13.374;2022-12-18T06:22:57;37.95;;;18.60;;
2129;SDS011;1071;52.544;13.374;2022-12-18T06:25:24;38.60;;;20.75;;
2129;SDS011;1071;52.544;13.374;2022-12-18T06:27:51;41.28;;;20.70;;
2129;SDS011;1071;52.544;13.374;2022-12-18T06:30:18;40.78;;;21.73;;
2129;SDS011;1071;52.544;13.374;2022-12-18T06:32:47;35.50;;;20.38;;
2129;SDS011;1071;52.544;13.374;2022-12-18T06:35:14;43.28;;;19.27;;
2129;SDS011;1071;52.544;13.374;2022-12-18T06:37:47;41.95;;;19.08;;
2129;SDS011;1071;52.544;13.374;2022-12-18T06:40:14;38.55;;;19.10;;
2129;SDS011;1071;52.544;13.374;2022-12-18T06:42:41;35.30;;;20.38;;
2129;SDS011;1071;52.544;13.374;2022-12-18T06:45:09;38.45;;;20.38;;
2129;SDS011;1071;52.544;13.374;2022-12-18T06:47:40;38.40;;;22.33;;
2129;SDS011;1071;52.544;13.374;2022-12-18T06:50:08;36.63;;;19.90;;
2129;SDS011;1071;52.544;13.374;2022-12-18T06:52:36;38.95;;;19.85;;
2129;SDS011;1071;52.544;13.374;2022-12-18T06:55:04;36.40;;;20.42;;
2129;SDS011;1071;52.544;13.374;2022-12-18T06:57:34;42.10;;;21.02;;
2129;SDS011;1071;52.544;13.374;2022-12-18T07:00:02;39.08;;;20.42;;
2129;SDS011;1071;52.544;13.374;2022-12-18T07:02:31;41.20;;;22.30;;
2129;SDS011;1071;52.544;13.374;2022-12-18T07:04:58;41.88;;;21.52;;
2129;SDS011;1071;52.544;13.374;2022-12-18T07:07:26;39.90;;;18.70;;
2129;SDS011;1071;52.544;13.374;2022-12-18T07:09:53;37.95;;;20.10;;
2129;SDS011;1071;52.544;13.374;2022-12-18T07:12:21;44.67;;;22.13;;
2129;SDS011;1071;52.544;13.374;2022-12-18T07:14:48;43.40;;;20.83;;
2129;SDS011;1071;52.544;13.374;2022-12-18T07:17:15;38.70;;;19.70;;
2129;SDS011;1071;52.544;13.374;2022-12-18T07:19:44;40.03;;;21.08;;
2129;SDS011;1071;52.544;13.374;2022-12-18T07:22:11;39.92;;;21.95;;
2129;SDS011;1071;52.544;13.374;2022-12-18T07:24:39;36.72;;;21.15;;
2129;SDS011;1071;52.544;13.374;2022-12-18T07:27:06;37.15;;;19.63;;
2129;SDS011;1071;52.544;13.374;2022-12-18T07:29:33;48.75;;;20.27;;
2129;SDS011;1071;52.544;13.374;2022-12-18T07:32:01;37.25;;;20.95;;
2129;SDS011;1071;52.544;13.374;2022-12-18T07:34:28;40.03;;;20.00;;
2129;SDS011;1071;52.544;13.374;2022-12-18T07:36:55;30.35;;;18.88;;
2129;SDS011;1071;52.544;13.374;2022-12-18T07:39:22;37.40;;;19.48;;
2129;SDS011;1071;52.544;13.374;2022-12-18T07:41:51;45.35;;;20.20;;
2129;SDS011;1071;52.544;13.374;2022-12-18T07:44:32;33.38;;;19.33;;
2129;SDS011;1071;52.544;13.374;2022-12-18T07:46:59;44.30;;;19.35;;
2129;SDS011;1071;52.544;13.374;2022-12-18T07:49:27;34.83;;;18.60;;
2129;SDS011;1071;52.544;13.374;2022-12-18T07:51:54;41.70;;;21.83;;
2129;SDS011;1071;52.544;13.374;2022-12-18T07:54:21;36.70;;;19.10;;
2129;SDS011;1071;52.544;13.374;2022-12-18T07:56:48;40.95;;;21.88;;
2129;SDS011;1071;52.544;13.374;2022-12-18T07:59:16;41.58;;;21.30;;
2129;SDS011;1071;52.544;13.374;2022-12-18T08:01:43;44.58;;;21.55;;
2129;SDS011;1071;52.544;13.374;2022-12-18T08:04:14;39.53;;;22.25;;
2129;SDS011;1071;52.544;13.374;2022-12-18T08:06:43;39.58;;;20.67;;
2129;SDS011;1071;52.544;13.374;2022-12-18T08:09:10;37.45;;;17.48;;
2129;SDS011;1071;52.544;13.374;2022-12-18T08:11:38;42.88;;;22.10;;
2129;SDS011;1071;52.544;13.374;2022-12-18T08:14:05;41.58;;;21.45;;
2129;SDS011;1071;52.544;13.374;2022-12-18T08:16:33;41.83;;;20.52;;
2129;SDS011;1071;52.544;13.374;2022-12-18T08:19:00;36.97;;;19.10;;
2129;SDS011;1071;52.544;13.374;2022-12-18T08:21:28;36.72;;;20.15;;
2129;SDS011;1071;52.544;13.374;2022-12-18T08:23:56;42.75;;;21.10;;
2129;SDS011;1071;52.544;13.374;2022-12-18T08:26:26;44.40;;;20.90;;
2129;SDS011;1071;52.544;13.374;2022-12-18T08:28:59;39.72;;;19.77;;
2129;SDS011;1071;52.544;13.374;2022-12-18T08:31:29;38.38;;;20.67;;
2129;SDS011;1071;52.544;13.374;2022-12-18T08:33:59;47.75;;;19.40;;
2129;SDS011;1071;52.544;13.374;2022-12-18T08:36:26;39.03;;;20.05;;
2129;SDS011;1071;52.544;13.374;2022-12-18T08:38:53;39.00;;;21.35;;
2129;SDS011;1071;52.544;13.374;2022-12-18T08:41:20;34.50;;;20.45;;
2129;SDS011;1071;52.544;13.374;2022-12-18T08:43:48;36.20;;;20.05;;
2129;SDS011;1071;52.544;13.374;2022-12-18T08:46:33;35.60;;;19.65;;
2129;SDS011;1071;52.544;13.374;2022-12-18T08:49:04;32.38;;;18.50;;
2129;SDS011;1071;52.544;13.374;2022-12-18T08:51:32;37.75;;;19.98;;
2129;SDS011;1071;52.544;13.374;2022-12-18T08:54:00;32.55;;;18.50;;
2129;SDS011;1071;52.544;13.374;2022-12-18T08:56:29;40.13;;;20.85;;
2129;SDS011;1071;52.544;13.374;2022-12-18T08:58:57;37.25;;;19.38;;
2129;SDS011;1071;52.544;13.374;2022-12-18T09:01:27;36.22;;;19.58;;
2129;SDS011;1071;52.544;13.374;2022-12-18T09:03:54;30.85;;;18.15;;
2129;SDS011;1071;52.544;13.374;2022-12-18T09:06:23;44.20;;;19.27;;
2129;SDS011;1071;52.544;13.374;2022-12-18T09:08:51;40.75;;;19.40;;
2129;SDS011;1071;52.544;13.374;2022-12-18T09:11:19;37.20;;;18.83;;
2129;SDS011;1071;52.544;13.374;2022-12-18T09:13:49;35.90;;;18.50;;
2129;SDS011;1071;52.544;13.374;2022-12-18T09:16:17;35.45;;;18.20;;
2129;SDS011;1071;52.544;13.374;2022-12-18T09:18:45;34.17;;;18.13;;
2129;SDS011;1071;52.544;13.374;2022-12-18T09:21:12;40.25;;;20.70;;
2129;SDS011;1071;52.544;13.374;2022-12-18T09:23:42;34.50;;;19.10;;
2129;SDS011;1071;52.544;13.374;2022-12-18T09:26:10;35.92;;;21.15;;
2129;SDS011;1071;52.544;13.374;2022-12-18T09:28:37;35.35;;;19.80;;
2129;SDS011;1071;52.544;13.374;2022-12-18T09:31:05;35.03;;;16.92;;
2129;SDS011;1071;52.544;13.374;2022-12-18T09:33:39;30.95;;;17.30;;
2129;SDS011;1071;52.544;13.374;2022-12-18T09:36:06;34.85;;;18.10;;
2129;SDS011;1071;52.544;13.374;2022-12-18T09:38:35;38.30;;;19.88;;
2129;SDS011;1071;52.544;13.374;2022-12-18T09:41:06;33.00;;;18.80;;
2129;SDS011;1071;52.544;13.374;2022-12-18T09:44:01;32.88;;;17.80;;
2129;SDS011;1071;52.544;13.374;2022-12-18T09:46:32;31.02;;;17.13;;
2129;SDS011;1071;52.544;13.374;2022-12-18T09:49:03;30.50;;;16.63;;
2129;SDS011;1071;52.544;13.374;2022-12-18T09:51:39;28.70;;;18.13;;
2129;SDS011;1071;52.544;13.374;2022-12-18T09:54:11;28.63;;;16.63;;
2129;SDS011;1071;52.544;13.374;2022-12-18T09:56:43;37.13;;;18.55;;
2129;SDS011;1071;52.544;13.374;2022-12-18T09:59:14;28.40;;;17.30;;
2129;SDS011;1071;52.544;13.374;2022-12-18T10:01:47;38.85;;;19.33;;
2129;SDS011;1071;52.544;13.374;2022-12-18T10:04:14;36.80;;;20.15;;
2129;SDS011;1071;52.544;13.374;2022-12-18T10:06:42;35.20;;;19.10;;
2129;SDS011;1071;52.544;13.374;2022-12-18T10:09:16;38.97;;;23.05;;
2129;SDS011;1071;52.544;13.374;2022-12-18T10:11:55;34.17;;;17.63;;
2129;SDS011;1071;52.544;13.374;2022-12-18T10:14:30;38.17;;;18.85;;
2129;SDS011;1071;52.544;13.374;2022-12-18T10:17:05;33.50;;;18.17;;
2129;SDS011;1071;52.544;13.374;2022-12-18T10:19:43;37.05;;;18.55;;
2129;SDS011;1071;52.544;13.374;2022-12-18T10:22:26;32.50;;;16.35;;
2129;SDS011;1071;52.544;13.374;2022-12-18T10:25:09;34.20;;;18.88;;
2129;SDS011;1071;52.544;13.374;2022-12-18T10:27:46;44.10;;;22.83;;
2129;SDS011;1071;52.544;13.374;2022-12-18T10:30:16;36.38;;;19.05;;
2129;SDS011;1071;52.544;13.374;2022-12-18T10:32:48;31.88;;;16.98;;
2129;SDS011;1071;52.544;13.374;2022-12-18T10:35:17;31.48;;;18.95;;
2129;SDS011;1071;52.544;13.374;2022-12-18T10:38:02;29.63;;;17.85;;
2129;SDS011;1071;52.544;13.374;2022-12-18T10:40:32;38.92;;;17.70;;
2129;SDS011;1071;52.544;13.374;2022-12-18T10:43:15;34.67;;;18.08;;
2129;SDS011;1071;52.544;13.374;2022-12-18T10:45:57;36.95;;;19.10;;
2129;SDS011;1071;52.544;13.374;2022-12-18T10:48:47;35.33;;;18.73;;
2129;SDS011;1071;52.544;13.374;2022-12-18T10:51:21;36.42;;;19.10;;
2129;SDS011;1071;52.544;13.374;2022-12-18T10:53:51;40.20;;;20.13;;
2129;SDS011;1071;52.544;13.374;2022-12-18T10:56:22;37.63;;;20.83;;
2129;SDS011;1071;52.544;13.374;2022-12-18T11:05:22;40.58;;;21.02;;
2129;SDS011;1071;52.544;13.374;2022-12-18T11:07:54;43.30;;;21.52;;
2129;SDS011;1071;52.544;13.374;2022-12-18T11:10:23;39.25;;;21.95;;
2129;SDS011;1071;52.544;13.374;2022-12-18T11:12:57;44.15;;;22.27;;
2129;SDS011;1071;52.544;13.374;2022-12-18T11:15:36;40.30;;;22.05;;
2129;SDS011;1071;52.544;13.374;2022-12-18T11:18:14;37.47;;;20.15;;
2129;SDS011;1071;52.544;13.374;2022-12-18T11:20:48;35.72;;;21.92;;
2129;SDS011;1071;52.544;13.374;2022-12-18T11:23:18;35.72;;;22.70;;
2129;SDS011;1071;52.544;13.374;2022-12-18T11:25:52;35.90;;;22.58;;
2129;SDS011;1071;52.544;13.374;2022-12-18T11:28:26;44.08;;;20.30;;
2129;SDS011;1071;52.544;13.374;2022-12-18T11:31:08;38.55;;;21.65;;
2129;SDS011;1071;52.544;13.374;2022-12-18T11:33:43;41.80;;;19.52;;
2129;SDS011;1071;52.544;13.374;2022-12-18T11:36:13;35.45;;;18.52;;
2129;SDS011;1071;52.544;13.374;2022-12-18T11:38:42;37.72;;;20.20;;
2129;SDS011;1071;52.544;13.374;2022-12-18T11:41:21;35.75;;;20.27;;
2129;SDS011;1071;52.544;13.374;2022-12-18T11:44:13;37.47;;;21.95;;
2129;SDS011;1071;52.544;13.374;2022-12-18T11:46:47;35.20;;;18.40;;
2129;SDS011;1071;52.544;13.374;2022-12-18T11:49:21;40.55;;;21.27;;
2129;SDS011;1071;52.544;13.374;2022-12-18T11:51:51;36.72;;;18.85;;
2129;SDS011;1071;52.544;13.374;2022-12-18T11:54:25;35.88;;;19.38;;
2129;SDS011;1071;52.544;13.374;2022-12-18T11:56:53;41.92;;;21.05;;
2129;SDS011;1071;52.544;13.374;2022-12-18T11:59:30;29.75;;;18.10;;
2129;SDS011;1071;52.544;13.374;2022-12-18T12:02:12;32.80;;;17.70;;
2129;SDS011;1071;52.544;13.374;2022-12-18T12:04:58;36.10;;;17.67;;
2129;SDS011;1071;52.544;13.374;2022-12-18T12:07:43;30.85;;;16.77;;
2129;SDS011;1071;52.544;13.374;2022-12-18T12:10:24;32.95;;;18.67;;
2129;SDS011;1071;52.544;13.374;2022-12-18T12:13:06;29.85;;;17.95;;
2129;SDS011;1071;52.544;13.374;2022-12-18T12:15:43;32.85;;;18.20;;
2129;SDS011;1071;52.544;13.374;2022-12-18T12:18:20;35.90;;;19.45;;
2129;SDS011;1071;52.544;13.374;2022-12-18T12:20:59;27.17;;;16.80;;
2129;SDS011;1071;52.544;13.374;2022-12-18T12:23:34;32.05;;;18.85;;
2129;SDS011;1071;52.544;13.374;2022-12-18T12:26:10;32.40;;;19.10;;
2129;SDS011;1071;52.544;13.374;2022-12-18T12:28:45;34.05;;;17.80;;
2129;SDS011;1071;52.544;13.374;2022-12-18T12:31:32;36.08;;;20.45;;
2129;SDS011;1071;52.544;13.374;2022-12-18T12:34:15;33.53;;;17.90;;
2129;SDS011;1071;52.544;13.374;2022-12-18T12:36:51;35.50;;;20.35;;
2129;SDS011;1071;52.544;13.374;2022-12-18T12:39:31;27.90;;;16.85;;
2129;SDS011;1071;52.544;13.374;2022-12-18T12:42:01;31.67;;;19.58;;
2129;SDS011;1071;52.544;13.374;2022-12-18T12:44:51;31.10;;;19.25;;
2129;SDS011;1071;52.544;13.374;2022-12-18T12:47:22;31.35;;;19.90;;
2129;SDS011;1071;52.544;13.374;2022-12-18T12:49:52;31.58;;;19.77;;
2129;SDS011;1071;52.544;13.374;2022-12-18T12:52:24;32.65;;;19.90;;
2129;SDS011;1071;52.544;13.374;2022-12-18T12:54:57;32.60;;;22.20;;
2129;SDS011;1071;52.544;13.374;2022-12-18T12:57:27;38.60;;;25.75;;
2129;SDS011;1071;52.544;13.374;2022-12-18T13:00:02;36.08;;;19.95;;
2129;SDS011;1071;52.544;13.374;2022-12-18T13:02:56;38.92;;;20.85;;
2129;SDS011;1071;52.544;13.374;2022-12-18T13:05:31;31.52;;;18.48;;
2129;SDS011;1071;52.544;13.374;2022-12-18T13:08:07;32.13;;;23.55;;
2129;SDS011;1071;52.544;13.374;2022-12-18T13:10:38;33.22;;;21.40;;
2129;SDS011;1071;52.544;13.374;2022-12-18T13:13:07;30.75;;;19.75;;
2129;SDS011;1071;52.544;13.374;2022-12-18T13:15:37;30.05;;;18.30;;
2129;SDS011;1071;52.544;13.374;2022-12-18T13:18:18;38.30;;;19.58;;
2129;SDS011;1071;52.544;13.374;2022-12-18T13:20:48;30.63;;;18.88;;
2129;SDS011;1071;52.544;13.374;2022-12-18T13:23:27;27.38;;;15.93;;
2129;SDS011;1071;52.544;13.374;2022-12-18T13:25:56;29.20;;;18.42;;
2129;SDS011;1071;52.544;13.374;2022-12-18T13:28:49;24.08;;;15.73;;
2129;SDS011;1071;52.544;13.374;2022-12-18T13:34:43;26.88;;;17.50;;
2129;SDS011;1071;52.544;13.374;2022-12-18T13:43:30;28.67;;;16.92;;
2129;SDS011;1071;52.544;13.374;2022-12-18T13:46:01;29.85;;;19.02;;
2129;SDS011;1071;52.544;13.374;2022-12-18T13:48:48;25.98;;;18.88;;
2129;SDS011;1071;52.544;13.374;2022-12-18T13:51:31;30.42;;;19.48;;
2129;SDS011;1071;52.544;13.374;2022-12-18T13:54:00;29.88;;;18.30;;
2129;SDS011;1071;52.544;13.374;2022-12-18T13:56:29;28.95;;;18.23;;
2129;SDS011;1071;52.544;13.374;2022-12-18T13:59:16;31.30;;;17.65;;
2129;SDS011;1071;52.544;13.374;2022-12-18T14:01:51;30.35;;;18.77;;
2129;SDS011;1071;52.544;13.374;2022-12-18T14:04:22;35.33;;;18.73;;
2129;SDS011;1071;52.544;13.374;2022-12-18T14:06:52;25.17;;;18.23;;
2129;SDS011;1071;52.544;13.374;2022-12-18T14:09:24;18.58;;;13.93;;
2129;SDS011;1071;52.544;13.374;2022-12-18T14:11:54;26.00;;;16.45;;
2129;SDS011;1071;52.544;13.374;2022-12-18T14:14:46;21.70;;;15.55;;
2129;SDS011;1071;52.544;13.374;2022-12-18T14:17:16;31.73;;;17.67;;
2129;SDS011;1071;52.544;13.374;2022-12-18T14:19:44;25.85;;;18.55;;
2129;SDS011;1071;52.544;13.374;2022-12-18T14:22:15;32.30;;;18.10;;
2129;SDS011;1071;52.544;13.374;2022-12-18T14:25:14;27.95;;;17.85;;
2129;SDS011;1071;52.544;13.374;2022-12-18T14:27:49;28.35;;;16.67;;
2129;SDS011;1071;52.544;13.374;2022-12-18T14:30:29;33.90;;;20.13;;
2129;SDS011;1071;52.544;13.374;2022-12-18T14:33:00;29.38;;;18.58;;
2129;SDS011;1071;52.544;13.374;2022-12-18T14:35:32;32.45;;;19.08;;
2129;SDS011;1071;52.544;13.374;2022-12-18T14:40:56;31.25;;;19.23;;
2129;SDS011;1071;52.544;13.374;2022-12-18T14:43:26;32.78;;;20.70;;
2129;SDS011;1071;52.544;13.374;2022-12-18T14:45:56;29.15;;;18.27;;
2129;SDS011;1071;52.544;13.374;2022-12-18T14:48:30;31.98;;;20.25;;
2129;SDS011;1071;52.544;13.374;2022-12-18T14:51:12;31.63;;;20.33;;
2129;SDS011;1071;52.544;13.374;2022-12-18T14:53:43;31.70;;;21.77;;
2129;SDS011;1071;52.544;13.374;2022-12-18T14:56:17;31.73;;;20.85;;
2129;SDS011;1071;52.544;13.374;2022-12-18T14:58:47;32.92;;;19.50;;
2129;SDS011;1071;52.544;13.374;2022-12-18T15:01:21;26.80;;;18.73;;
2129;SDS011;1071;52.544;13.374;2022-12-18T15:03:52;29.67;;;20.80;;
2129;SDS011;1071;52.544;13.374;2022-12-18T15:06:24;31.08;;;20.55;;
2129;SDS011;1071;52.544;13.374;2022-12-18T15:09:00;27.15;;;18.10;;
2129;SDS011;1071;52.544;13.374;2022-12-18T15:11:44;26.85;;;15.85;;
2129;SDS011;1071;52.544;13.374;2022-12-18T15:14:22;19.35;;;14.77;;
2129;SDS011;1071;52.544;13.374;2022-12-18T15:16:52;21.90;;;14.88;;
2129;SDS011;1071;52.544;13.374;2022-12-18T15:19:20;24.52;;;16.08;;